気象予報士の航空気象 24日 雷雲モード解析

*All archives   *Admin

2009.05.28 (Thu)

24日 雷雲モード解析

 今日は大きな寒冷渦が日本の上空に居座っているため、関東から西のほとんどの高度で、大きな揺れが発生していました。

 天気図を集め、後日、解析とともにUPします。


低気圧が四国の南海上に=東海も暴風高波に警戒を
-気象庁

5月28日9時21分配信 時事通信

 気象庁は28日午前、発達中の低気圧が四国の南海上にある影響で、西日本の太平洋側では風が非常に強くなっている所があると発表した。東海地方も風が強まる見込みで、同庁は暴風と高波に警戒を呼び掛けた。

 西日本太平洋側と東海の予想最大風速は、陸上で18~20メートル、海上で22~25メートル。予想される波の高さは最大6メートル。低気圧の動きが遅いため、28日夕方まで続くという。 



さて、


 24日の雷雲が通過したときのエマグラムと羽田と成田のMETARを列挙します。

羽田空港

240600Z 11006KT 9999 -SHRA FEW010 SCT020 BKN/// 19/16 Q1004 RMK 1CU010 3CU020 A2965

240630Z 07008KT 9999 -SHRA FEW008 SCT010 BKN110 19/16 Q1004 RMK 1ST008 3CU010 5AC110 A2965

240700Z 10006KT 9999 FEW010 SCT070 BKN110 19/16 Q1004 RMK 1CU010 3AC070 6AC110 A2965

240730Z 08004KT 9999 FEW009 SCT015 BKN100 19/16 Q1004 RMK 1ST009 3CU015 6AC100 A2965

240800Z 11006KT 9999 FEW009 SCT015 BKN120 20/16 Q1004 RMK 1ST009 3CU015 6AC120 A2965

240830Z 12005KT 9999 FEW012 BKN100 19/16 Q1004 RMK 2CU012 5AC100 A2966

240900Z 11004KT 9999 FEW010 BKN130 19/16 Q1004 RMK 2CU010 6AC130 A2966

240930Z 11006KT 9999 FEW010 FEW030CB BKN100 19/16 Q1004 RMK 2CU010 1CB030 6AC100 A2967 CB 20KM N STNR

241000Z 12005KT 9999 FEW010 SCT080 BKN130 19/15 Q1005 RMK 1CU010 3AC080 6AC130 A2968

241100Z 13004KT 100V170 9999 FEW015 FEW030CB BKN120 19/16 Q1005 RMK 1CU015 1CB030 6AC120 A2969 CB 30KM N STNR

241130Z 16003KT 090V210 9999 FEW015 FEW030CB BKN100 19/15 Q1005 RMK 1CU015 1CB030 7AC100 A2970 LIGHTNING 30KM NW STNR

241200Z 14005KT 9999 FEW015 FEW030CB SCT050 BKN100 19/16 Q1005 RMK 1CU015 1CB030 3SC050 7AC100 A2970 LIGHTNING 30KM NW STNR

241230Z 14005KT 9999 -SHRA FEW015 FEW030CB SCT040 BKN070 18/16 Q1006 RMK 2CU015 1CB030 4SC040 7AC070 A2971 LIGHTNING 30KM NW MOV SE

241300Z 10004KT 9999 -SHRA FEW010 SCT025 FEW030CB BKN040 19/16 Q1006 RMK 1CU010 3CU025 1CB030 5SC040 A2971 LIGHTNING 5KM NW-N MOV SE

241315Z 07004KT 9999 -TSRA FEW010 SCT020 FEW030CB BKN040 19/16 Q1006 RMK 1CU010 3CU020 1CB030 5SC040 A2972 FBL TS 5KM NW-N MOV SE

241325Z 06004KT 360V100 6000 R34L/1400VP1800D R22/P1800N R34R/P1800N TSRA FEW010 SCT020 FEW030CB BKN040 19/16 Q1006 RMK 1CU010 3CU020 1CB030 5SC040 A2972 FBL TS 5KM W-NW MOV SE

241330Z 36009KT 6000 R34L/1300VP1800N R22/P1800N R34R/P1800N TSRA FEW010 BKN015 FEW030CB BKN035 18/15 Q1006 RMK 1CU010 5CU015 1CB030 7SC035 A2972 FBL TS 5KM W-NW MOV SE

241334Z 36011KT 6000 R34L/1300VP1800U R22/P1800N R34R/P1800N TSRA FEW010 BKN015 FEW030CB BKN035 17/15 Q1006 RMK 1CU010 5CU015 1CB030 7SC035 A2972 FBL TS 5KM W-NW MOV SE

241342Z 34011KT 5000 TSRA BR FEW008 BKN012 FEW030CB 17/14 Q1006 RMK 1ST008 6CU012 1CB030 A2973 MOD TS OHD MOV SE

241400Z 35010KT 6000 TSRA FEW008 BKN015 FEW030CB 17/15 Q1006 RMK 1ST008 6CU015 1CB030 A2972 MOD TS OHD MOV SE

241408Z 01011KT 6000 SHRA FEW007 BKN015 17/15 Q1006 RETS RMK 1ST007 7CU015 A2972

241430Z 36007KT 6000 SHRA FEW005 SCT015 BKN035 17/15 Q1006 RETS RMK 1ST005 4CU015 6CU035 A2973

241500Z 01006KT 6000 SHRA FEW006 SCT015 BKN035 17/15 Q1006 RMK 1ST006 3CU015 6CU035 A2972



成田空港

240600Z 06004KT 020V150 8000 -SHRA FEW006 SCT030 BKN070 18/16 Q1004 NOSIG RMK 2ST006 4CU030 7AC070 A2966

240630Z 07005KT 360V150 8000 FEW007 SCT012 BKN100 18/17 Q1003 BECMG 04006KT

240700Z VRB03KT 8000 -SHRA FEW008 SCT025 BKN100 18/16 Q1004 BECMG 08006KT RMK 1ST008 3CU025 7AC100 A2966

240730Z 14004KT 080V170 9000 FEW008 BKN100 18/16 Q1004 NOSIG RMK 1ST008 6AC100 A2965

240800Z VRB02KT 9999 FEW008 BKN110 19/16 Q1004 BECMG 08006KT RMK 1ST008 6AC110 A2965

240830Z 12003KT 9999 FEW011 BKN110 19/16 Q1004 NOSIG RMK 2CU011 5AC110 A2966

240900Z 09003KT 9999 FEW010 SCT110 18/16 Q1004 NOSIG RMK 1CU010 3AC110 A2966

240930Z 11004KT 060V140 9999 FEW010 SCT110 18/16 Q1004 NOSIG RMK 2CU010 3AC110 A2967

241000Z 15003KT 8000 FEW010 SCT110 17/16 Q1005 NOSIG RMK 2CU010 3AC110 A2968

241030Z 15003KT 7000 FEW010 SCT080 17/16 Q1005 NOSIG RMK 2CU010 3AC080 A2969

241100Z 15004KT 6000 BR FEW010 SCT080 BKN120 16/16 Q1005 NOSIG RMK 1CU010 3AC080 5AC120 A2969

241130Z 13003KT 6000 BR FEW010 BKN080 16/16 Q1005 NOSIG RMK 1CU010 6AC080 A2970

241200Z 11004KT 7000 BR FEW010 BKN080 17/16 Q1006 NOSIG RMK 1CU010 7AC080 A2971

241300Z VRB01KT 9999 FEW030CB BKN080 16/16 Q1006 NOSIG RMK 1CB030 7AC080 A2971 LIGHTNING 50KM W STNR

241330Z VRB02KT 9999 FEW020 FEW030CB BKN080 16/16 Q1006 TEMPO 4000 TSRA BR RMK 1CU020 1CB030 7AC080 A2972 LIGHTNING 50KM W MOV SE

241400Z 24001KT 9999 FEW020 FEW030CB BKN080 16/15 Q1006 TEMPO 4000 TSRA BR

241430Z 24002KT 9999 FEW020 FEW030CB BKN100 16/16 Q1006 TEMPO 4000 TSRA BR RMK 2CU020 1CB030 7AC100 A2972 CB 40KM W MOV SE AND 50KM NE MOV S

241500Z VRB01KT 8000 -SHRA FEW025 FEW030CB SCT040 BKN100 17/16 Q1006 TEMPO 4000 TSRA BR

241530Z 29003KT 5000 -SHRA BR FEW010 FEW030CB BKN030 BKN080 17/16 Q1006 TEMPO 4000 TSRA BR RMK 1CU010 1CB030 5CU030 7AC080 A2972 CB 20KM N MOV S

241545Z 32014KT 5000 SHRA BR FEW003 SCT025 FEW030CB BKN035 16/15 Q1006 RMK 1ST003 3CU025 1CB030 5CU035 A2972 CB 15KM N MOV S

241600Z 34010KT 5000 SHRA BR FEW003 SCT020 BKN035 15/14 Q1006 TEMPO 4000 TSRA BR

241630Z 01015KT 4500 SHRA BR FEW003 SCT008 BKN035 15/14 Q1006 NOSIG RMK 1ST003 3ST008 5CU035 A2973

241700Z 02011KT 4500 SHRA BR FEW005 BKN035 15/14 Q1006 NOSIG RMK 1ST005 7CU035 A2972



続いて館野のエマグラム

Showalter index は -1.2です。

エマグラム館野24MAY0912Z




ブログランキングに参加しています。
にほんブログ村 環境ブログ 天気・気象学へ
にほんブログ村
応援クリックをおねがします。


以下、アフィリエイトサイトです。









スポンサーサイト
21:22  |  気象・天気  |  TB(0)  |  CM(0)  |  EDIT  |  Top↑

コメントを投稿する


 管理者だけに表示  (非公開コメント投稿可能)

▲PageTop

この記事のトラックバックURL

→http://weathereucalyptus.blog115.fc2.com/tb.php/125-6e19c2c4
この記事にトラックバックする(FC2ブログユーザー)

この記事へのトラックバック

▲PageTop

 | BLOGTOP |